createdAt,value
2018-07-11T00:00:59.305Z,97.80
2018-07-11T00:04:04.804Z,98.80
2018-07-11T00:06:40.439Z,98.70
2018-07-11T00:09:08.199Z,98.80
2018-07-11T00:11:35.959Z,98.90
2018-07-11T00:14:04.669Z,99.00
2018-07-11T00:16:32.509Z,98.90
2018-07-11T00:19:00.182Z,98.60
2018-07-11T00:21:27.820Z,97.70
2018-07-11T00:23:56.018Z,98.30
2018-07-11T00:26:27.487Z,98.00
2018-07-11T00:29:00.677Z,98.60
2018-07-11T00:31:34.981Z,98.40
2018-07-11T00:34:02.648Z,98.70
2018-07-11T00:36:34.860Z,98.60
2018-07-11T00:39:02.735Z,98.80
2018-07-11T00:41:30.450Z,99.40
2018-07-11T00:44:00.765Z,98.30
2018-07-11T00:46:28.478Z,98.70
2018-07-11T00:48:57.429Z,98.90
2018-07-11T00:51:25.027Z,99.30
2018-07-11T00:53:53.054Z,99.00
2018-07-11T00:56:20.686Z,98.90
2018-07-11T00:58:50.589Z,99.30
2018-07-11T01:01:18.390Z,99.00
2018-07-11T01:03:51.201Z,99.30
2018-07-11T01:06:18.914Z,99.70
2018-07-11T01:08:57.967Z,99.80
2018-07-11T01:11:53.954Z,99.70
2018-07-11T01:14:22.106Z,99.70
2018-07-11T01:16:49.904Z,99.20
2018-07-11T01:19:17.568Z,98.90
2018-07-11T01:21:47.802Z,99.20
2018-07-11T01:24:15.638Z,99.00
2018-07-11T01:26:43.486Z,99.10
2018-07-11T01:29:11.933Z,99.20
2018-07-11T01:31:40.907Z,99.40
2018-07-11T01:34:12.309Z,99.60
2018-07-11T01:36:42.233Z,99.70
2018-07-11T01:39:09.911Z,98.80
2018-07-11T01:41:37.637Z,99.20
2018-07-11T01:44:31.487Z,98.60
2018-07-11T01:46:59.177Z,98.60
2018-07-11T01:49:27.077Z,98.30
2018-07-11T01:52:00.451Z,98.60
2018-07-11T01:54:28.739Z,98.60
2018-07-11T01:56:56.648Z,98.70
2018-07-11T01:59:25.429Z,98.90
2018-07-11T02:01:53.410Z,99.00
2018-07-11T02:07:13.886Z,99.20
2018-07-11T02:09:53.209Z,99.40
2018-07-11T02:12:23.018Z,99.50
2018-07-11T02:14:56.137Z,99.40
2018-07-11T02:17:24.084Z,99.50
2018-07-11T02:19:54.362Z,99.40
2018-07-11T02:22:23.285Z,99.20
2018-07-11T02:24:51.290Z,99.20
2018-07-11T02:27:19.159Z,99.20
2018-07-11T02:29:47.037Z,98.80
2018-07-11T02:32:15.038Z,99.30
2018-07-11T02:34:43.922Z,99.50
2018-07-11T02:37:12.720Z,99.40
2018-07-11T02:39:43.231Z,99.30
2018-07-11T02:42:19.811Z,99.40
2018-07-11T02:44:59.000Z,99.90
2018-07-11T02:47:34.092Z,99.90
2018-07-11T02:56:25.641Z,99.40
2018-07-11T02:59:30.160Z,99.00
2018-07-11T03:02:23.459Z,99.00
2018-07-11T03:07:53.954Z,99.40
2018-07-11T03:10:22.364Z,99.20
2018-07-11T03:13:05.186Z,99.20
2018-07-11T03:15:37.781Z,98.70
2018-07-11T03:18:07.123Z,99.20
2018-07-11T03:20:37.842Z,99.60
2018-07-11T03:23:06.011Z,99.40
2018-07-11T03:43:41.967Z,99.20
2018-07-11T03:46:09.788Z,98.90
2018-07-11T03:48:47.269Z,98.60
2018-07-11T03:51:15.025Z,98.90
2018-07-11T03:53:42.843Z,98.90
2018-07-11T03:56:10.524Z,98.70
2018-07-11T03:58:38.254Z,99.30
2018-07-11T04:01:06.101Z,99.10
2018-07-11T04:03:33.736Z,99.10
2018-07-11T04:06:01.493Z,99.20
2018-07-11T04:08:29.153Z,98.90
2018-07-11T04:10:56.859Z,99.20
2018-07-11T04:13:24.658Z,98.70
2018-07-11T04:15:52.327Z,99.10
2018-07-11T04:18:26.718Z,99.20
2018-07-11T04:20:54.438Z,98.90
2018-07-11T04:23:22.103Z,99.10
2018-07-11T04:25:51.239Z,99.20
2018-07-11T04:28:18.950Z,98.80
2018-07-11T04:30:46.559Z,99.10
2018-07-11T04:33:14.166Z,99.40
2018-07-11T04:35:41.835Z,99.00
2018-07-11T04:38:09.451Z,99.70
2018-07-11T04:40:41.795Z,99.50
2018-07-11T04:43:11.557Z,99.80
2018-07-11T04:45:39.139Z,99.70
2018-07-11T04:48:06.781Z,99.60
2018-07-11T04:50:34.573Z,99.80
2018-07-11T04:53:06.026Z,99.90
2018-07-11T04:55:33.670Z,99.80
2018-07-11T04:58:01.271Z,99.90
2018-07-11T05:00:28.833Z,99.80
2018-07-11T05:02:59.915Z,99.90
2018-07-11T05:05:31.429Z,99.90
2018-07-11T05:07:59.249Z,99.90
2018-07-11T05:10:36.209Z,99.90
2018-07-11T05:13:03.858Z,99.90
2018-07-11T05:15:32.227Z,99.90
2018-07-11T05:17:59.881Z,99.90
2018-07-11T05:20:27.907Z,99.90
2018-07-11T05:23:00.587Z,99.90
2018-07-11T05:25:30.795Z,99.90
2018-07-11T05:27:58.781Z,99.60
2018-07-11T05:30:26.416Z,99.90
2018-07-11T05:32:54.074Z,99.90
2018-07-11T05:35:23.829Z,99.40
2018-07-11T05:37:51.590Z,99.90
2018-07-11T05:40:19.362Z,99.60
2018-07-11T05:42:49.010Z,99.20
2018-07-11T05:45:16.670Z,99.60
2018-07-11T05:47:44.353Z,99.40
2018-07-11T05:50:12.001Z,99.90
2018-07-11T05:52:39.772Z,99.30
2018-07-11T05:55:07.908Z,99.90
2018-07-11T05:57:36.714Z,99.80
2018-07-11T06:00:05.084Z,99.20
2018-07-11T06:02:48.952Z,99.90
2018-07-11T06:05:18.742Z,99.60
2018-07-11T06:07:49.324Z,98.60
2018-07-11T06:10:18.487Z,98.80
2018-07-11T06:18:20.946Z,99.30
2018-07-11T06:20:51.816Z,99.50
2018-07-11T06:23:20.114Z,99.00
2018-07-11T06:25:48.249Z,99.10
2018-07-11T06:28:17.410Z,98.90
2018-07-11T06:36:48.272Z,99.10
2018-07-11T07:32:10.727Z,99.50
2018-07-11T07:43:20.274Z,98.20
2018-07-11T07:51:42.098Z,95.90
2018-07-11T07:54:10.279Z,95.50
2018-07-11T07:56:38.541Z,94.00
2018-07-11T07:59:06.733Z,93.90
2018-07-11T08:01:36.277Z,93.60
2018-07-11T08:04:04.079Z,91.60
2018-07-11T08:06:31.965Z,92.00
2018-07-11T08:08:59.747Z,92.30
2018-07-11T08:11:27.741Z,92.50
2018-07-11T08:13:55.507Z,91.80
2018-07-11T08:16:23.512Z,92.00
2018-07-11T08:18:51.425Z,91.90
2018-07-11T08:21:19.265Z,92.20
2018-07-11T08:23:52.513Z,91.10
2018-07-11T08:26:26.022Z,90.10
2018-07-11T08:31:04.092Z,89.50
2018-07-11T08:34:35.097Z,88.30
2018-07-11T08:37:08.188Z,90.50
2018-07-11T08:39:43.058Z,89.30
2018-07-11T08:44:18.668Z,88.20
2018-07-11T08:47:08.750Z,85.10
2018-07-11T08:49:41.782Z,86.10
2018-07-11T08:52:14.774Z,88.10
2018-07-11T08:56:49.902Z,89.00
2018-07-11T08:59:26.110Z,89.90
2018-07-11T09:04:00.448Z,87.20
2018-07-11T09:06:33.699Z,87.90
2018-07-11T09:09:07.022Z,89.90
2018-07-11T09:11:40.379Z,90.30
2018-07-11T09:14:20.055Z,90.80
2018-07-11T09:16:54.506Z,90.50
2018-07-11T09:19:31.570Z,88.70
2018-07-11T09:22:06.567Z,87.00
2018-07-11T09:24:35.720Z,85.30
2018-07-11T09:27:03.381Z,84.20
2018-07-11T09:29:31.036Z,84.00
2018-07-11T09:31:58.702Z,85.90
2018-07-11T09:34:26.549Z,86.30
2018-07-11T09:36:54.281Z,85.00
2018-07-11T09:39:21.935Z,88.00
2018-07-11T09:41:49.577Z,88.50
2018-07-11T09:44:17.293Z,88.90
2018-07-11T09:46:44.928Z,87.10
2018-07-11T09:49:12.937Z,86.00
2018-07-11T09:51:40.673Z,84.50
2018-07-11T09:54:08.311Z,80.60
2018-07-11T09:56:37.860Z,79.70
2018-07-11T09:59:05.765Z,79.50
2018-07-11T10:01:33.530Z,80.10
2018-07-11T10:04:01.365Z,82.50
2018-07-11T10:06:29.497Z,81.90
2018-07-11T10:08:58.022Z,82.80
2018-07-11T10:11:29.683Z,83.10
2018-07-11T10:14:03.272Z,83.20
2018-07-11T10:16:30.994Z,82.60
2018-07-11T10:19:03.529Z,82.90
2018-07-11T10:21:32.305Z,83.10
2018-07-11T10:24:00.215Z,78.40
2018-07-11T10:26:28.013Z,78.70
2018-07-11T10:28:55.954Z,77.00
2018-07-11T10:31:24.410Z,77.80
2018-07-11T10:33:52.108Z,78.20
2018-07-11T10:36:19.724Z,79.20
2018-07-11T10:38:47.446Z,80.90
2018-07-11T10:41:15.297Z,78.10
2018-07-11T10:43:43.064Z,77.90
2018-07-11T10:46:10.876Z,79.70
2018-07-11T10:51:23.429Z,72.40
2018-07-11T10:53:51.115Z,71.90
2018-07-11T10:56:18.795Z,75.10
2018-07-11T10:58:46.428Z,71.40
2018-07-11T11:01:15.317Z,68.60
2018-07-11T11:03:42.963Z,71.70
2018-07-11T11:06:10.591Z,70.60
2018-07-11T11:08:38.376Z,71.60
2018-07-11T11:11:06.022Z,75.00
2018-07-11T11:13:34.114Z,74.10
2018-07-11T11:16:04.912Z,75.20
2018-07-11T11:18:32.874Z,76.30
2018-07-11T11:21:00.718Z,77.50
2018-07-11T11:23:28.549Z,75.30
2018-07-11T11:25:56.143Z,76.30
2018-07-11T11:28:23.795Z,76.80
2018-07-11T11:30:51.562Z,79.60
2018-07-11T11:33:19.185Z,79.90
2018-07-11T11:35:47.044Z,78.10
2018-07-11T11:38:21.453Z,78.80
2018-07-11T11:40:49.955Z,77.50
2018-07-11T11:43:18.374Z,78.10
2018-07-11T11:45:46.331Z,77.10
2018-07-11T11:48:14.773Z,75.30
2018-07-11T11:50:42.622Z,74.60
2018-07-11T11:53:10.424Z,74.30
2018-07-11T11:55:38.194Z,74.60
2018-07-11T11:58:06.035Z,76.60
2018-07-11T12:00:33.794Z,76.10
2018-07-11T12:03:03.681Z,75.00
2018-07-11T12:05:31.320Z,74.60
2018-07-11T12:08:01.769Z,74.70
2018-07-11T12:10:40.883Z,75.30
2018-07-11T12:13:09.111Z,87.80
2018-07-11T12:15:37.432Z,89.50
2018-07-11T13:18:13.493Z,93.50
2018-07-11T13:20:41.147Z,93.40
2018-07-11T13:23:08.874Z,93.30
2018-07-11T13:25:36.482Z,91.10
2018-07-11T13:28:05.065Z,92.40
2018-07-11T13:30:32.645Z,93.00
2018-07-11T13:33:00.264Z,92.40
2018-07-11T13:35:27.893Z,92.00
2018-07-11T13:37:55.515Z,91.20
2018-07-11T13:40:23.198Z,92.50
2018-07-11T13:42:50.821Z,90.80
2018-07-11T13:45:18.437Z,89.20
2018-07-11T13:47:46.046Z,90.40
2018-07-11T13:50:13.677Z,84.60
2018-07-11T13:52:42.379Z,83.50
2018-07-11T13:55:10.088Z,82.60
2018-07-11T13:57:37.635Z,84.20
2018-07-11T14:00:05.261Z,84.20
2018-07-11T14:02:32.883Z,84.50
2018-07-11T14:05:00.674Z,84.50
2018-07-11T14:07:28.339Z,86.30
2018-07-11T14:09:55.989Z,83.90
2018-07-11T14:12:23.653Z,82.50
2018-07-11T14:14:51.336Z,81.50
2018-07-11T14:17:18.932Z,80.90
2018-07-11T14:19:46.685Z,81.50
2018-07-11T14:22:15.487Z,81.60
2018-07-11T14:24:43.146Z,83.30
2018-07-11T14:27:10.820Z,84.00
2018-07-11T14:29:38.539Z,83.60
2018-07-11T14:32:06.386Z,83.80
2018-07-11T14:34:34.082Z,84.10
2018-07-11T14:37:01.677Z,84.80
2018-07-11T14:39:29.358Z,84.20
2018-07-11T14:41:57.201Z,85.20
2018-07-11T14:44:24.989Z,84.20
2018-07-11T14:46:52.620Z,84.60
2018-07-11T14:49:20.908Z,83.80
2018-07-11T14:51:48.710Z,83.10
2018-07-11T14:54:16.320Z,82.90
2018-07-11T14:56:43.939Z,83.20
2018-07-11T14:59:11.537Z,83.10
2018-07-11T15:01:39.286Z,81.00
2018-07-11T15:04:06.919Z,80.70
2018-07-11T15:06:34.573Z,81.10
2018-07-11T15:09:02.479Z,78.10
2018-07-11T15:11:29.898Z,78.30
2018-07-11T15:13:57.614Z,80.30
2018-07-11T15:16:25.311Z,77.40
2018-07-11T15:18:52.966Z,77.60
2018-07-11T15:21:20.652Z,76.70
2018-07-11T15:23:48.373Z,76.00
2018-07-11T15:26:16.007Z,74.20
2018-07-11T15:28:43.814Z,72.00
2018-07-11T15:31:12.426Z,72.60
2018-07-11T15:33:41.232Z,72.40
2018-07-11T15:36:08.960Z,73.40
2018-07-11T15:38:37.312Z,69.70
2018-07-11T15:41:04.981Z,71.80
2018-07-11T15:43:33.635Z,71.40
2018-07-11T15:46:01.277Z,68.80
2018-07-11T15:48:28.922Z,68.80
2018-07-11T15:50:57.382Z,69.00
2018-07-11T15:53:26.447Z,70.30
2018-07-11T15:55:54.129Z,71.50
2018-07-11T15:58:22.479Z,71.10
2018-07-11T16:00:50.816Z,72.80
2018-07-11T16:03:18.558Z,73.10
2018-07-11T16:05:46.849Z,75.70
2018-07-11T16:08:16.509Z,74.80
2018-07-11T16:10:49.657Z,75.70
2018-07-11T16:13:20.584Z,75.80
2018-07-11T16:15:49.186Z,75.90
2018-07-11T16:18:16.872Z,77.60
2018-07-11T16:20:44.569Z,82.00
2018-07-11T16:23:16.427Z,85.20
2018-07-11T16:25:44.571Z,85.20
2018-07-11T16:28:12.330Z,86.60
2018-07-11T16:30:40.132Z,88.80
2018-07-11T16:33:07.894Z,87.80
2018-07-11T16:35:36.138Z,89.00
2018-07-11T16:38:04.773Z,87.40
2018-07-11T16:40:33.054Z,88.20
2018-07-11T16:43:01.359Z,87.40
2018-07-11T16:45:29.636Z,86.40
2018-07-11T16:47:57.885Z,85.10
2018-07-11T16:50:27.193Z,85.00
2018-07-11T16:55:35.888Z,85.70
2018-07-11T16:58:03.955Z,85.40
2018-07-11T17:00:33.620Z,83.40
2018-07-11T17:03:04.676Z,83.40
2018-07-11T17:05:34.427Z,83.60
2018-07-11T17:08:05.878Z,83.50
2018-07-11T17:10:33.901Z,83.10
2018-07-11T17:13:12.001Z,84.70
2018-07-11T17:15:48.046Z,83.00
2018-07-11T17:18:21.426Z,83.50
2018-07-11T17:20:54.007Z,83.90
2018-07-11T17:23:22.338Z,83.90
2018-07-11T17:25:50.063Z,84.80
2018-07-11T17:28:17.848Z,84.80
2018-07-11T17:30:49.008Z,85.00
2018-07-11T17:33:17.436Z,85.60
2018-07-11T17:35:47.660Z,86.10
2018-07-11T17:38:15.384Z,84.60
2018-07-11T17:40:43.891Z,85.60
2018-07-11T17:43:11.754Z,85.40
2018-07-11T17:45:40.595Z,85.60
2018-07-11T17:48:44.809Z,86.20
2018-07-11T17:51:17.998Z,86.20
2018-07-11T17:53:49.190Z,86.80
2018-07-11T17:56:21.115Z,89.00
2018-07-11T17:58:53.592Z,90.30
2018-07-11T18:04:09.546Z,90.90
2018-07-11T18:06:45.503Z,90.70
2018-07-11T18:09:14.909Z,91.30
2018-07-11T18:11:51.056Z,90.80
2018-07-11T18:17:09.818Z,91.20
2018-07-11T18:19:46.357Z,91.90
2018-07-11T18:22:24.843Z,92.10
2018-07-11T18:39:38.457Z,91.60
2018-07-11T18:42:11.485Z,91.70
2018-07-11T18:44:44.636Z,91.10
2018-07-11T18:47:17.553Z,91.80
2018-07-11T18:49:48.472Z,91.40
2018-07-11T18:52:22.716Z,91.70
2018-07-11T18:54:55.832Z,91.60
2018-07-11T18:57:28.709Z,91.60
2018-07-11T18:59:59.820Z,92.10
2018-07-11T19:02:30.624Z,91.90
2018-07-11T19:05:00.677Z,92.20
2018-07-11T19:07:38.500Z,92.20
2018-07-11T19:10:06.124Z,92.40
2018-07-11T19:12:39.013Z,92.30
2018-07-11T19:15:16.863Z,92.20
2018-07-11T19:17:46.365Z,92.40
2018-07-11T19:20:16.013Z,93.10
2018-07-11T19:22:50.140Z,93.10
2018-07-11T19:25:22.171Z,92.70
2018-07-11T19:27:56.225Z,92.90
2018-07-11T19:30:28.953Z,92.50
2018-07-11T19:35:03.055Z,92.40
2018-07-11T19:37:38.217Z,92.30
2018-07-11T19:40:11.447Z,91.80
2018-07-11T19:42:49.069Z,92.10
2018-07-11T19:45:20.932Z,92.30
2018-07-11T19:47:53.966Z,92.00
2018-07-11T19:50:26.504Z,91.60
2018-07-11T19:52:57.087Z,92.20
2018-07-11T19:55:31.120Z,92.40
2018-07-11T19:57:58.773Z,92.50
2018-07-11T20:00:26.439Z,92.70
2018-07-11T20:02:54.231Z,92.90
2018-07-11T20:05:22.755Z,92.70
2018-07-11T20:07:50.444Z,92.80
2018-07-11T20:10:18.063Z,92.90
2018-07-11T20:12:45.756Z,92.90
2018-07-11T20:15:13.372Z,92.90
2018-07-11T20:17:41.081Z,93.40
2018-07-11T20:20:08.772Z,93.30
2018-07-11T20:22:36.427Z,93.50
2018-07-11T20:25:04.258Z,93.60
2018-07-11T20:27:31.915Z,93.80
2018-07-11T20:29:59.806Z,93.90
2018-07-11T20:32:27.542Z,93.80
2018-07-11T20:34:55.210Z,94.10
2018-07-11T20:37:22.842Z,94.20
2018-07-11T20:39:50.502Z,94.10
2018-07-11T20:42:18.146Z,94.40
2018-07-11T20:44:45.805Z,94.30
2018-07-11T20:47:13.444Z,94.50
2018-07-11T20:49:41.110Z,94.70
2018-07-11T20:52:08.758Z,94.70
2018-07-11T20:54:36.742Z,94.80
2018-07-11T20:57:04.404Z,95.10
2018-07-11T20:59:37.708Z,95.00
2018-07-11T21:02:16.905Z,95.10
2018-07-11T21:04:50.012Z,95.20
2018-07-11T21:07:22.086Z,95.20
2018-07-11T21:10:00.377Z,95.10
2018-07-11T21:12:29.525Z,95.20
2018-07-11T21:15:02.746Z,95.30
2018-07-11T21:17:47.605Z,95.20
2018-07-11T21:20:15.316Z,95.40
2018-07-11T21:22:42.994Z,95.80
2018-07-11T21:25:10.574Z,95.90
2018-07-11T21:27:38.413Z,96.10
2018-07-11T21:30:05.989Z,96.40
2018-07-11T21:32:33.620Z,96.50
2018-07-11T21:35:01.267Z,96.50
2018-07-11T21:37:28.902Z,96.60
2018-07-11T21:39:56.505Z,96.70
2018-07-11T21:42:24.158Z,96.70
2018-07-11T21:44:51.787Z,96.70
2018-07-11T21:47:19.366Z,96.60
2018-07-11T21:49:46.981Z,96.40
2018-07-11T21:52:14.629Z,96.60
2018-07-11T21:54:42.233Z,96.70
2018-07-11T21:57:09.837Z,97.10
2018-07-11T21:59:37.426Z,97.10
2018-07-11T22:02:05.009Z,97.10
2018-07-11T22:04:32.590Z,97.30
2018-07-11T22:07:00.179Z,97.10
2018-07-11T22:09:27.786Z,97.20
2018-07-11T22:11:55.309Z,97.30
2018-07-11T22:14:22.937Z,97.40
2018-07-11T22:16:50.541Z,97.40
2018-07-11T22:19:18.120Z,97.40
2018-07-11T22:21:45.142Z,97.50
2018-07-11T22:24:13.098Z,97.20
2018-07-11T22:26:40.286Z,97.30
2018-07-11T22:29:07.346Z,97.20
2018-07-11T22:31:34.398Z,97.50
2018-07-11T22:34:01.613Z,97.20
2018-07-11T22:36:28.721Z,97.20
2018-07-11T22:38:55.786Z,97.40
2018-07-11T22:41:22.853Z,97.60
2018-07-11T22:43:49.918Z,97.70
2018-07-11T22:46:16.940Z,97.60
2018-07-11T22:48:44.017Z,97.60
2018-07-11T22:51:11.071Z,97.80
2018-07-11T22:53:38.110Z,97.70
2018-07-11T22:56:05.202Z,97.60
2018-07-11T22:58:32.291Z,97.50
2018-07-11T23:00:59.332Z,97.80
2018-07-11T23:03:26.394Z,97.90
2018-07-11T23:05:53.450Z,98.00
2018-07-11T23:08:20.523Z,97.70
2018-07-11T23:10:47.585Z,97.70
2018-07-11T23:13:15.476Z,97.50
2018-07-11T23:15:42.499Z,97.70
2018-07-11T23:18:09.550Z,97.70
2018-07-11T23:20:36.635Z,97.60
2018-07-11T23:23:03.673Z,97.70
2018-07-11T23:25:30.754Z,97.70
2018-07-11T23:27:57.855Z,97.70
2018-07-11T23:30:25.063Z,97.70
2018-07-11T23:32:52.138Z,97.40
2018-07-11T23:35:19.185Z,97.50
2018-07-11T23:37:46.268Z,97.80
2018-07-11T23:40:13.350Z,97.70
2018-07-11T23:42:40.392Z,97.90
2018-07-11T23:45:07.450Z,98.00
2018-07-11T23:47:34.591Z,98.20
2018-07-11T23:50:01.754Z,98.60
2018-07-11T23:52:28.826Z,98.30
2018-07-11T23:54:55.883Z,98.30
2018-07-11T23:57:22.938Z,98.30
2018-07-11T23:59:50.108Z,98.20
